createdAt,value
2019-06-27T00:00:36.404Z,17.08
2019-06-27T00:01:36.379Z,17.05
2019-06-27T00:02:36.357Z,17.04
2019-06-27T00:03:36.377Z,16.99
2019-06-27T00:04:36.336Z,16.96
2019-06-27T00:05:36.345Z,16.93
2019-06-27T00:06:36.317Z,16.90
2019-06-27T00:07:36.329Z,16.86
2019-06-27T00:08:36.309Z,16.83
2019-06-27T00:09:36.373Z,16.81
2019-06-27T00:10:36.277Z,16.79
2019-06-27T00:11:36.259Z,16.75
2019-06-27T00:12:36.309Z,16.75
2019-06-27T00:13:36.237Z,16.71
2019-06-27T00:14:36.265Z,16.66
2019-06-27T00:15:36.292Z,16.66
2019-06-27T00:16:36.246Z,16.61
2019-06-27T00:17:36.195Z,16.60
2019-06-27T00:18:36.189Z,16.56
2019-06-27T00:19:36.277Z,16.53
2019-06-27T00:20:36.165Z,16.53
2019-06-27T00:21:36.198Z,16.50
2019-06-27T00:22:36.144Z,16.49
2019-06-27T00:23:36.247Z,16.47
2019-06-27T00:24:36.128Z,16.46
2019-06-27T00:25:36.108Z,16.43
2019-06-27T00:26:36.104Z,16.42
2019-06-27T00:27:36.098Z,16.42
2019-06-27T00:28:36.227Z,16.41
2019-06-27T00:29:36.090Z,16.39
2019-06-27T00:30:36.081Z,16.38
2019-06-27T00:31:36.295Z,16.36
2019-06-27T00:32:36.103Z,16.33
2019-06-27T00:33:36.038Z,16.31
2019-06-27T00:34:36.021Z,16.28
2019-06-27T00:35:36.241Z,16.28
2019-06-27T00:36:35.992Z,16.23
2019-06-27T00:37:35.987Z,16.21
2019-06-27T00:38:36.023Z,16.20
2019-06-27T00:39:36.160Z,16.17
2019-06-27T00:40:35.992Z,16.16
2019-06-27T00:41:35.958Z,16.13
2019-06-27T00:42:35.937Z,16.12
2019-06-27T00:43:35.966Z,16.10
2019-06-27T00:44:36.077Z,16.09
2019-06-27T00:45:35.898Z,16.04
2019-06-27T00:46:35.992Z,16.01
2019-06-27T00:47:35.935Z,16.00
2019-06-27T00:48:35.848Z,15.98
2019-06-27T00:49:35.878Z,15.98
2019-06-27T00:50:35.834Z,15.97
2019-06-27T00:51:35.855Z,15.98
2019-06-27T00:52:36.017Z,15.98
2019-06-27T00:53:35.800Z,15.98
2019-06-27T00:54:35.836Z,16.00
2019-06-27T00:55:35.774Z,16.01
2019-06-27T00:56:36.004Z,16.00
2019-06-27T00:57:35.826Z,15.97
2019-06-27T00:58:35.794Z,15.95
2019-06-27T00:59:35.750Z,15.94
2019-06-27T01:00:37.027Z,15.92
2019-06-27T01:01:35.714Z,15.88
2019-06-27T01:02:35.727Z,15.84
2019-06-27T01:03:35.799Z,15.82
2019-06-27T01:04:35.739Z,15.80
2019-06-27T01:05:35.691Z,15.77
2019-06-27T01:06:35.679Z,15.75
2019-06-27T01:07:35.657Z,15.70
2019-06-27T01:08:35.646Z,15.68
2019-06-27T01:09:35.746Z,15.65
2019-06-27T01:10:35.627Z,15.64
2019-06-27T01:11:35.630Z,15.62
2019-06-27T01:12:35.663Z,15.61
2019-06-27T01:13:35.618Z,15.61
2019-06-27T01:14:35.669Z,15.61
2019-06-27T01:15:35.746Z,15.58
2019-06-27T01:16:35.825Z,15.58
2019-06-27T01:17:35.554Z,15.57
2019-06-27T01:18:35.530Z,15.54
2019-06-27T01:19:35.537Z,15.51
2019-06-27T01:20:35.705Z,15.49
2019-06-27T01:21:35.738Z,15.47
2019-06-27T01:22:35.499Z,15.46
2019-06-27T01:23:35.819Z,15.44
2019-06-27T01:24:35.882Z,15.43
2019-06-27T01:25:35.507Z,15.39
2019-06-27T01:26:35.445Z,15.39
2019-06-27T01:27:35.527Z,15.36
2019-06-27T01:28:35.494Z,15.33
2019-06-27T01:29:35.417Z,15.33
2019-06-27T01:30:35.541Z,15.31
2019-06-27T01:31:35.405Z,15.31
2019-06-27T01:32:35.389Z,15.28
2019-06-27T01:33:35.365Z,15.27
2019-06-27T01:34:35.368Z,15.27
2019-06-27T01:35:35.376Z,15.28
2019-06-27T01:36:35.367Z,15.29
2019-06-27T01:37:36.106Z,15.27
2019-06-27T01:38:35.981Z,15.22
2019-06-27T01:39:35.328Z,15.21
2019-06-27T01:40:35.327Z,15.19
2019-06-27T01:41:35.297Z,15.19
2019-06-27T01:42:35.279Z,15.18
2019-06-27T01:43:35.276Z,15.17
2019-06-27T01:44:35.279Z,15.15
2019-06-27T01:45:35.269Z,15.14
2019-06-27T01:46:35.258Z,15.11
2019-06-27T01:47:35.236Z,15.09
2019-06-27T01:48:35.217Z,15.07
2019-06-27T01:49:35.237Z,15.07
2019-06-27T01:50:35.443Z,15.06
2019-06-27T01:51:35.196Z,15.07
2019-06-27T01:52:35.196Z,15.09
2019-06-27T01:53:35.178Z,15.11
2019-06-27T01:54:35.171Z,15.15
2019-06-27T01:55:35.134Z,15.18
2019-06-27T01:56:35.136Z,15.18
2019-06-27T01:57:46.003Z,15.21
2019-06-27T01:58:36.114Z,15.24
2019-06-27T01:59:35.095Z,15.25
2019-06-27T02:00:35.089Z,15.29
2019-06-27T02:01:35.075Z,15.35
2019-06-27T02:02:35.528Z,15.35
2019-06-27T02:03:35.058Z,15.37
2019-06-27T02:04:35.067Z,15.42
2019-06-27T02:05:35.024Z,15.43
2019-06-27T02:06:35.016Z,15.44
2019-06-27T02:07:35.028Z,15.44
2019-06-27T02:08:35.006Z,15.47
2019-06-27T02:09:35.001Z,15.51
2019-06-27T02:10:35.019Z,15.52
2019-06-27T02:11:34.985Z,15.54
2019-06-27T02:12:34.956Z,15.54
2019-06-27T02:13:34.947Z,15.54
2019-06-27T02:14:35.254Z,15.54
2019-06-27T02:15:35.164Z,15.57
2019-06-27T02:16:34.913Z,15.57
2019-06-27T02:17:34.906Z,15.58
2019-06-27T02:18:34.904Z,15.59
2019-06-27T02:19:35.220Z,15.59
2019-06-27T02:20:34.975Z,15.62
2019-06-27T02:21:34.888Z,15.61
2019-06-27T02:22:34.986Z,15.61
2019-06-27T02:23:34.834Z,15.62
2019-06-27T02:24:34.827Z,15.61
2019-06-27T02:25:34.817Z,15.58
2019-06-27T02:26:34.845Z,15.57
2019-06-27T02:27:34.834Z,15.55
2019-06-27T02:28:34.985Z,15.54
2019-06-27T02:29:34.790Z,15.54
2019-06-27T02:30:34.764Z,15.55
2019-06-27T02:31:34.997Z,15.54
2019-06-27T02:32:34.770Z,15.54
2019-06-27T02:33:34.736Z,15.54
2019-06-27T02:34:34.832Z,15.54
2019-06-27T02:35:34.934Z,15.52
2019-06-27T02:36:35.209Z,15.52
2019-06-27T02:37:34.681Z,15.52
2019-06-27T02:38:34.974Z,15.52
2019-06-27T02:39:34.654Z,15.51
2019-06-27T02:40:34.743Z,15.52
2019-06-27T02:41:34.702Z,15.54
2019-06-27T02:42:34.649Z,15.54
2019-06-27T02:43:34.688Z,15.52
2019-06-27T02:44:34.624Z,15.51
2019-06-27T02:45:34.598Z,15.52
2019-06-27T02:46:34.592Z,15.54
2019-06-27T02:47:34.591Z,15.51
2019-06-27T02:48:34.577Z,15.52
2019-06-27T02:49:34.573Z,15.54
2019-06-27T02:50:34.560Z,15.55
2019-06-27T02:51:34.534Z,15.54
2019-06-27T02:52:34.533Z,15.54
2019-06-27T02:53:35.763Z,15.52
2019-06-27T02:54:34.503Z,15.52
2019-06-27T02:55:35.355Z,15.54
2019-06-27T02:56:34.811Z,15.52
2019-06-27T02:57:35.432Z,15.52
2019-06-27T02:58:34.586Z,15.54
2019-06-27T02:59:34.990Z,15.54
2019-06-27T03:00:35.011Z,15.54
2019-06-27T03:01:34.879Z,15.54
2019-06-27T03:02:34.429Z,15.52
2019-06-27T03:03:34.978Z,15.54
2019-06-27T03:04:34.898Z,15.52
2019-06-27T03:05:35.030Z,15.52
2019-06-27T03:06:35.210Z,15.52
2019-06-27T03:07:34.510Z,15.52
2019-06-27T03:08:34.751Z,15.52
2019-06-27T03:09:34.457Z,15.51
2019-06-27T03:10:34.442Z,15.51
2019-06-27T03:11:34.522Z,15.51
2019-06-27T03:12:34.405Z,15.47
2019-06-27T03:13:34.389Z,15.51
2019-06-27T03:14:34.536Z,15.47
2019-06-27T03:15:35.858Z,15.47
2019-06-27T03:16:34.395Z,15.46
2019-06-27T03:17:34.302Z,15.47
2019-06-27T03:18:34.292Z,15.47
2019-06-27T03:19:34.311Z,15.51
2019-06-27T03:20:34.458Z,15.51
2019-06-27T03:21:34.433Z,15.52
2019-06-27T03:22:34.277Z,15.49
2019-06-27T03:23:34.200Z,15.49
2019-06-27T03:24:34.266Z,15.49
2019-06-27T03:25:34.402Z,15.46
2019-06-27T03:26:34.287Z,15.44
2019-06-27T03:27:34.904Z,15.43
2019-06-27T03:28:51.215Z,15.42
2019-06-27T03:29:35.246Z,15.43
2019-06-27T03:30:34.763Z,15.42
2019-06-27T03:31:34.149Z,15.43
2019-06-27T03:32:34.172Z,15.43
2019-06-27T03:33:34.124Z,15.43
2019-06-27T03:34:34.271Z,15.42
2019-06-27T03:35:34.082Z,15.39
2019-06-27T03:36:34.079Z,15.40
2019-06-27T03:37:34.313Z,15.40
2019-06-27T03:38:34.060Z,15.42
2019-06-27T03:39:34.171Z,15.42
2019-06-27T03:40:34.071Z,15.43
2019-06-27T03:41:34.005Z,15.43
2019-06-27T03:42:34.039Z,15.43
2019-06-27T03:43:34.116Z,15.44
2019-06-27T03:44:34.137Z,15.44
2019-06-27T03:45:34.083Z,15.46
2019-06-27T03:46:34.154Z,15.47
2019-06-27T03:47:34.000Z,15.49
2019-06-27T03:48:33.985Z,15.49
2019-06-27T03:49:34.094Z,15.51
2019-06-27T03:50:34.084Z,15.49
2019-06-27T03:51:33.980Z,15.51
2019-06-27T03:52:34.001Z,15.51
2019-06-27T03:53:33.994Z,15.52
2019-06-27T03:54:33.913Z,15.54
2019-06-27T03:55:34.063Z,15.55
2019-06-27T03:56:33.994Z,15.57
2019-06-27T03:57:34.227Z,15.58
2019-06-27T03:58:33.993Z,15.59
2019-06-27T03:59:33.848Z,15.59
2019-06-27T04:00:33.891Z,15.62
2019-06-27T04:01:34.221Z,15.62
2019-06-27T04:02:33.784Z,15.64
2019-06-27T04:03:33.953Z,15.65
2019-06-27T04:04:34.220Z,15.64
2019-06-27T04:05:34.321Z,15.65
2019-06-27T04:06:33.877Z,15.61
2019-06-27T04:07:34.492Z,15.62
2019-06-27T04:08:33.825Z,15.64
2019-06-27T04:09:33.826Z,15.62
2019-06-27T04:10:33.968Z,15.62
2019-06-27T04:11:33.850Z,15.61
2019-06-27T04:12:33.800Z,15.58
2019-06-27T04:13:34.298Z,15.57
2019-06-27T04:14:33.921Z,15.57
2019-06-27T04:15:33.785Z,15.58
2019-06-27T04:16:33.818Z,15.59
2019-06-27T04:17:33.727Z,15.59
2019-06-27T04:18:34.072Z,15.62
2019-06-27T04:19:33.932Z,15.62
2019-06-27T04:20:34.081Z,15.65
2019-06-27T04:21:33.913Z,15.65
2019-06-27T04:22:33.819Z,15.64
2019-06-27T04:23:33.738Z,15.64
2019-06-27T04:24:33.771Z,15.64
2019-06-27T04:25:33.572Z,15.64
2019-06-27T04:26:33.801Z,15.64
2019-06-27T04:27:34.009Z,15.64
2019-06-27T04:28:33.767Z,15.62
2019-06-27T04:29:35.089Z,15.62
2019-06-27T04:30:33.540Z,15.65
2019-06-27T04:31:33.727Z,15.65
2019-06-27T04:32:33.883Z,15.65
2019-06-27T04:33:33.851Z,15.70
2019-06-27T04:34:33.513Z,15.70
2019-06-27T04:35:33.612Z,15.70
2019-06-27T04:36:33.697Z,15.73
2019-06-27T04:37:33.513Z,15.76
2019-06-27T04:38:33.410Z,15.76
2019-06-27T04:39:33.599Z,15.79
2019-06-27T04:40:33.534Z,15.80
2019-06-27T04:41:33.357Z,15.79
2019-06-27T04:42:33.496Z,15.80
2019-06-27T04:43:33.355Z,15.80
2019-06-27T04:44:33.521Z,15.80
2019-06-27T04:45:33.651Z,15.83
2019-06-27T04:46:33.641Z,15.82
2019-06-27T04:47:33.328Z,15.82
2019-06-27T04:48:33.447Z,15.82
2019-06-27T04:49:33.581Z,15.79
2019-06-27T04:50:33.543Z,15.80
2019-06-27T04:51:33.633Z,15.82
2019-06-27T04:52:33.295Z,15.83
2019-06-27T04:53:33.268Z,15.84
2019-06-27T04:54:33.686Z,15.88
2019-06-27T04:55:33.400Z,15.91
2019-06-27T04:56:33.251Z,15.97
2019-06-27T04:57:33.257Z,16.01
2019-06-27T04:58:33.517Z,16.08
2019-06-27T04:59:51.822Z,16.12
2019-06-27T05:00:34.217Z,16.10
2019-06-27T05:01:33.477Z,16.16
2019-06-27T05:02:33.165Z,16.20
2019-06-27T05:03:33.197Z,16.21
2019-06-27T05:04:33.145Z,16.21
2019-06-27T05:05:33.213Z,16.16
2019-06-27T05:06:33.138Z,16.17
2019-06-27T05:07:33.198Z,16.10
2019-06-27T05:08:33.079Z,16.10
2019-06-27T05:09:33.328Z,16.12
2019-06-27T05:10:33.397Z,16.13
2019-06-27T05:11:33.358Z,16.16
2019-06-27T05:12:33.150Z,16.21
2019-06-27T05:13:33.201Z,16.28
2019-06-27T05:14:33.040Z,16.32
2019-06-27T05:15:33.301Z,16.33
2019-06-27T05:16:33.165Z,16.31
2019-06-27T05:17:33.237Z,16.31
2019-06-27T05:18:36.041Z,16.32
2019-06-27T05:19:33.026Z,16.32
2019-06-27T05:20:32.961Z,16.35
2019-06-27T05:21:32.989Z,16.36
2019-06-27T05:22:32.988Z,16.38
2019-06-27T05:23:32.954Z,16.38
2019-06-27T05:24:33.118Z,16.39
2019-06-27T05:25:33.662Z,16.33
2019-06-27T05:26:33.371Z,16.38
2019-06-27T05:27:33.216Z,16.42
2019-06-27T05:28:32.917Z,16.47
2019-06-27T05:29:33.207Z,16.51
2019-06-27T05:30:33.000Z,16.49
2019-06-27T05:31:32.960Z,16.50
2019-06-27T05:32:32.993Z,16.50
2019-06-27T05:33:32.900Z,16.49
2019-06-27T05:34:32.887Z,16.49
2019-06-27T05:35:32.803Z,16.46
2019-06-27T05:36:32.870Z,16.47
2019-06-27T05:37:32.945Z,16.47
2019-06-27T05:38:32.933Z,16.49
2019-06-27T05:39:33.180Z,16.49
2019-06-27T05:40:32.831Z,16.46
2019-06-27T05:41:33.169Z,16.49
2019-06-27T05:42:33.168Z,16.50
2019-06-27T05:43:32.856Z,16.51
2019-06-27T05:44:33.032Z,16.54
2019-06-27T05:45:32.971Z,16.49
2019-06-27T05:46:32.969Z,16.47
2019-06-27T05:47:32.886Z,16.53
2019-06-27T05:48:33.240Z,16.53
2019-06-27T05:49:32.827Z,16.56
2019-06-27T05:50:32.773Z,16.56
2019-06-27T05:51:32.604Z,16.57
2019-06-27T05:52:32.800Z,16.76
2019-06-27T05:53:32.909Z,16.87
2019-06-27T05:54:32.629Z,16.87
2019-06-27T05:55:32.616Z,17.04
2019-06-27T05:56:33.182Z,16.91
2019-06-27T05:57:32.750Z,16.72
2019-06-27T05:58:32.613Z,16.66
2019-06-27T05:59:32.753Z,16.69
2019-06-27T06:00:32.749Z,16.93
2019-06-27T06:01:32.759Z,17.20
2019-06-27T06:02:32.735Z,17.51
2019-06-27T06:03:32.539Z,17.39
2019-06-27T06:04:34.263Z,17.39
2019-06-27T06:05:32.784Z,17.31
2019-06-27T06:06:32.438Z,17.29
2019-06-27T06:07:32.518Z,17.09
2019-06-27T06:08:32.440Z,17.27
2019-06-27T06:09:33.099Z,17.51
2019-06-27T06:10:32.557Z,17.52
2019-06-27T06:11:32.585Z,17.41
2019-06-27T06:12:32.530Z,17.34
2019-06-27T06:13:32.382Z,17.39
2019-06-27T06:14:32.418Z,17.38
2019-06-27T06:15:32.497Z,17.27
2019-06-27T06:16:32.602Z,17.14
2019-06-27T06:17:33.078Z,17.11
2019-06-27T06:18:32.390Z,17.14
2019-06-27T06:19:32.608Z,17.26
2019-06-27T06:20:32.350Z,17.22
2019-06-27T06:21:32.821Z,17.29
2019-06-27T06:22:32.342Z,17.31
2019-06-27T06:23:32.455Z,17.33
2019-06-27T06:24:32.641Z,17.27
2019-06-27T06:25:32.761Z,17.24
2019-06-27T06:26:32.434Z,17.30
2019-06-27T06:27:32.277Z,17.52
2019-06-27T06:28:32.243Z,17.85
2019-06-27T06:29:32.628Z,18.10
2019-06-27T06:30:43.825Z,18.31
2019-06-27T06:31:33.309Z,18.35
2019-06-27T06:32:32.200Z,18.56
2019-06-27T06:33:32.292Z,18.77
2019-06-27T06:34:32.337Z,18.80
2019-06-27T06:35:32.473Z,18.84
2019-06-27T06:36:32.306Z,18.70
2019-06-27T06:37:32.170Z,18.62
2019-06-27T06:38:32.381Z,18.49
2019-06-27T06:39:32.233Z,18.43
2019-06-27T06:40:32.116Z,18.40
2019-06-27T06:41:32.162Z,18.38
2019-06-27T06:42:32.143Z,18.33
2019-06-27T06:43:32.232Z,18.23
2019-06-27T06:44:32.307Z,18.13
2019-06-27T06:45:32.641Z,17.89
2019-06-27T06:46:32.034Z,17.83
2019-06-27T06:47:32.101Z,17.97
2019-06-27T06:48:32.004Z,17.97
2019-06-27T06:49:32.153Z,17.95
2019-06-27T06:50:32.185Z,17.98
2019-06-27T06:51:32.395Z,17.90
2019-06-27T06:52:32.199Z,17.80
2019-06-27T06:53:32.011Z,17.89
2019-06-27T06:54:32.050Z,17.80
2019-06-27T06:55:32.342Z,17.83
2019-06-27T06:56:32.086Z,17.85
2019-06-27T06:57:31.947Z,17.92
2019-06-27T06:58:31.959Z,17.86
2019-06-27T06:59:31.958Z,17.83
2019-06-27T07:00:31.932Z,17.85
2019-06-27T07:01:32.633Z,17.95
2019-06-27T07:02:31.970Z,18.04
2019-06-27T07:03:32.549Z,18.03
2019-06-27T07:04:32.119Z,17.98
2019-06-27T07:05:31.946Z,18.00
2019-06-27T07:06:31.813Z,18.11
2019-06-27T07:07:32.101Z,18.18
2019-06-27T07:08:31.864Z,18.13
2019-06-27T07:09:32.289Z,18.08
2019-06-27T07:10:32.361Z,17.97
2019-06-27T07:11:32.013Z,17.85
2019-06-27T07:12:31.872Z,17.80
2019-06-27T07:13:31.771Z,17.78
2019-06-27T07:14:31.747Z,17.78
2019-06-27T07:15:31.779Z,17.68
2019-06-27T07:16:31.733Z,17.63
2019-06-27T07:17:31.785Z,17.46
2019-06-27T07:18:31.795Z,17.38
2019-06-27T07:19:31.761Z,17.51
2019-06-27T07:20:31.994Z,17.46
2019-06-27T07:21:32.416Z,17.45
2019-06-27T07:22:31.840Z,17.60
2019-06-27T07:23:31.687Z,17.67
2019-06-27T07:24:31.619Z,17.80
2019-06-27T07:25:31.705Z,17.95
2019-06-27T07:26:31.631Z,18.03
2019-06-27T07:27:32.030Z,18.13
2019-06-27T07:28:31.792Z,18.26
2019-06-27T07:29:31.727Z,18.25
2019-06-27T07:30:31.795Z,18.34
2019-06-27T07:31:31.728Z,18.37
2019-06-27T07:32:31.600Z,18.22
2019-06-27T07:33:31.574Z,18.23
2019-06-27T07:34:31.571Z,18.15
2019-06-27T07:35:31.470Z,18.07
2019-06-27T07:36:31.731Z,17.97
2019-06-27T07:37:31.576Z,17.94
2019-06-27T07:38:31.475Z,18.11
2019-06-27T07:39:31.481Z,18.25
2019-06-27T07:40:31.765Z,18.41
2019-06-27T07:41:31.435Z,18.53
2019-06-27T07:42:31.876Z,18.66
2019-06-27T07:43:31.446Z,18.83
2019-06-27T07:44:31.456Z,18.92
2019-06-27T07:45:31.493Z,18.90
2019-06-27T07:46:31.443Z,18.99
2019-06-27T07:47:31.504Z,19.00
2019-06-27T07:48:31.517Z,18.92
2019-06-27T07:49:33.296Z,18.99
2019-06-27T07:50:31.409Z,19.00
2019-06-27T07:51:31.460Z,19.14
2019-06-27T07:52:31.384Z,19.15
2019-06-27T07:53:31.314Z,19.16
2019-06-27T07:54:31.352Z,19.14
2019-06-27T07:55:31.404Z,19.16
2019-06-27T07:56:31.276Z,19.18
2019-06-27T07:57:31.249Z,19.21
2019-06-27T07:58:31.325Z,19.21
2019-06-27T07:59:31.305Z,19.26
2019-06-27T08:00:31.259Z,19.29
2019-06-27T08:01:35.541Z,19.19
2019-06-27T08:02:31.270Z,19.02
2019-06-27T08:03:31.494Z,18.89
2019-06-27T08:04:31.642Z,18.77
2019-06-27T08:05:31.162Z,18.88
2019-06-27T08:06:31.165Z,19.02
2019-06-27T08:07:31.168Z,19.19
2019-06-27T08:08:31.113Z,19.37
2019-06-27T08:09:31.111Z,19.52
2019-06-27T08:10:31.094Z,19.56
2019-06-27T08:11:31.115Z,19.56
2019-06-27T08:12:31.088Z,19.59
2019-06-27T08:13:31.078Z,19.58
2019-06-27T08:14:31.111Z,19.51
2019-06-27T08:15:31.037Z,19.36
2019-06-27T08:16:31.028Z,19.27
2019-06-27T08:17:31.035Z,19.29
2019-06-27T08:18:31.008Z,19.24
2019-06-27T08:19:30.995Z,19.44
2019-06-27T08:20:30.987Z,19.66
2019-06-27T08:21:30.983Z,19.70
2019-06-27T08:22:30.995Z,19.73
2019-06-27T08:23:41.065Z,19.69
2019-06-27T08:24:34.396Z,19.76
2019-06-27T08:25:30.935Z,19.81
2019-06-27T08:26:30.922Z,20.00
2019-06-27T08:27:30.918Z,20.06
2019-06-27T08:28:30.913Z,20.14
2019-06-27T08:29:30.892Z,20.31
2019-06-27T08:30:30.899Z,20.44
2019-06-27T08:31:30.867Z,20.40
2019-06-27T08:32:30.858Z,20.39
2019-06-27T08:33:30.860Z,20.31
2019-06-27T08:34:30.825Z,20.28
2019-06-27T08:35:33.497Z,20.32
2019-06-27T08:36:30.832Z,20.51
2019-06-27T08:37:30.803Z,20.47
2019-06-27T08:38:30.845Z,20.31
2019-06-27T08:39:30.803Z,20.58
2019-06-27T08:40:30.765Z,20.93
2019-06-27T08:41:30.764Z,21.30
2019-06-27T08:42:30.755Z,21.60
2019-06-27T08:43:30.768Z,21.70
2019-06-27T08:44:30.746Z,22.45
2019-06-27T08:45:30.746Z,22.73
2019-06-27T08:46:30.706Z,22.85
2019-06-27T08:47:30.699Z,23.03
2019-06-27T08:48:30.690Z,23.59
2019-06-27T08:49:30.712Z,24.01
2019-06-27T08:50:30.669Z,24.24
2019-06-27T08:51:30.662Z,24.35
2019-06-27T08:52:30.646Z,24.45
2019-06-27T08:53:30.637Z,24.73
2019-06-27T08:54:30.617Z,25.22
2019-06-27T08:55:30.640Z,25.36
2019-06-27T08:56:30.613Z,25.60
2019-06-27T08:57:30.588Z,25.13
2019-06-27T08:58:30.590Z,24.76
2019-06-27T08:59:30.577Z,24.73
2019-06-27T09:00:30.575Z,25.25
2019-06-27T09:01:30.556Z,25.44
2019-06-27T09:02:30.547Z,25.80
2019-06-27T09:03:30.537Z,25.70
2019-06-27T09:04:30.516Z,25.78
2019-06-27T09:05:30.542Z,26.41
2019-06-27T09:06:30.529Z,26.47
2019-06-27T09:07:30.499Z,26.36
2019-06-27T09:08:30.479Z,26.66
2019-06-27T09:09:30.487Z,26.40
2019-06-27T09:10:30.512Z,26.36
2019-06-27T09:11:33.848Z,26.66
2019-06-27T09:12:31.455Z,26.92
2019-06-27T09:13:30.479Z,27.49
2019-06-27T09:14:30.416Z,27.85
2019-06-27T09:15:30.489Z,27.58
2019-06-27T09:16:30.412Z,27.63
2019-06-27T09:17:30.402Z,27.49
2019-06-27T09:18:30.398Z,26.62
2019-06-27T09:19:30.401Z,26.84
2019-06-27T09:20:30.379Z,26.96
2019-06-27T09:21:30.382Z,27.30
2019-06-27T09:22:30.348Z,27.63
2019-06-27T09:23:30.349Z,28.07
2019-06-27T09:24:30.353Z,27.74
2019-06-27T09:25:30.346Z,27.67
2019-06-27T09:26:30.311Z,27.60
2019-06-27T09:27:30.313Z,27.03
2019-06-27T09:28:30.303Z,26.62
2019-06-27T09:29:30.284Z,26.66
2019-06-27T09:30:30.282Z,27.20
2019-06-27T09:31:30.289Z,27.30
2019-06-27T09:32:30.289Z,27.14
2019-06-27T09:33:30.253Z,27.30
2019-06-27T09:34:30.234Z,26.97
2019-06-27T09:35:30.229Z,27.15
2019-06-27T09:36:30.223Z,27.08
2019-06-27T09:37:30.238Z,27.36
2019-06-27T09:38:30.190Z,27.58
2019-06-27T09:39:30.197Z,27.22
2019-06-27T09:40:30.181Z,26.59
2019-06-27T09:41:30.185Z,27.00
2019-06-27T09:42:30.162Z,27.27
2019-06-27T09:43:30.180Z,27.58
2019-06-27T09:44:30.133Z,27.89
2019-06-27T09:45:30.158Z,27.85
2019-06-27T09:46:30.125Z,27.73
2019-06-27T09:47:30.126Z,27.51
2019-06-27T09:48:30.125Z,26.88
2019-06-27T09:49:30.109Z,26.90
2019-06-27T09:50:30.100Z,27.15
2019-06-27T09:51:30.101Z,27.48
2019-06-27T09:52:30.075Z,27.71
2019-06-27T09:53:30.058Z,27.45
2019-06-27T09:54:30.113Z,27.35
2019-06-27T09:55:30.036Z,27.47
2019-06-27T09:56:30.025Z,27.58
2019-06-27T09:57:30.016Z,28.01
2019-06-27T09:58:30.010Z,28.54
2019-06-27T09:59:30.006Z,28.62
2019-06-27T10:00:30.012Z,28.14
2019-06-27T10:01:29.983Z,28.26
2019-06-27T10:02:41.051Z,28.20
2019-06-27T10:03:30.963Z,28.02
2019-06-27T10:04:29.953Z,28.23
2019-06-27T10:05:29.949Z,28.42
2019-06-27T10:06:29.977Z,28.19
2019-06-27T10:07:29.937Z,27.51
2019-06-27T10:08:29.915Z,27.68
2019-06-27T10:09:29.934Z,27.49
2019-06-27T10:10:29.927Z,27.49
2019-06-27T10:11:29.894Z,27.48
2019-06-27T10:12:41.793Z,27.74
2019-06-27T10:13:30.862Z,28.19
2019-06-27T10:14:29.896Z,28.45
2019-06-27T10:15:29.867Z,28.33
2019-06-27T10:16:29.838Z,28.85
2019-06-27T10:17:29.836Z,28.85
2019-06-27T10:18:29.836Z,28.60
2019-06-27T10:19:29.824Z,28.45
2019-06-27T10:20:29.841Z,28.39
2019-06-27T10:21:29.792Z,28.08
2019-06-27T10:22:29.795Z,28.23
2019-06-27T10:23:29.784Z,28.49
2019-06-27T10:24:29.775Z,29.02
2019-06-27T10:25:29.762Z,28.63
2019-06-27T10:26:29.763Z,27.90
2019-06-27T10:27:29.743Z,28.27
2019-06-27T10:28:29.735Z,28.93
2019-06-27T10:29:29.743Z,28.98
2019-06-27T10:30:29.716Z,29.32
2019-06-27T10:31:29.759Z,29.20
2019-06-27T10:32:29.693Z,29.38
2019-06-27T10:33:29.683Z,29.07
2019-06-27T10:34:29.666Z,29.26
2019-06-27T10:35:29.665Z,29.22
2019-06-27T10:36:29.671Z,28.84
2019-06-27T10:37:29.669Z,29.02
2019-06-27T10:38:29.647Z,29.10
2019-06-27T10:39:29.631Z,28.89
2019-06-27T10:40:29.646Z,28.72
2019-06-27T10:41:29.607Z,28.67
2019-06-27T10:42:29.595Z,28.38
2019-06-27T10:43:29.608Z,27.55
2019-06-27T10:44:29.565Z,27.12
2019-06-27T10:45:29.579Z,26.83
2019-06-27T10:46:29.559Z,26.62
2019-06-27T10:47:29.551Z,25.99
2019-06-27T10:48:29.568Z,26.18
2019-06-27T10:49:29.527Z,26.21
2019-06-27T10:50:29.522Z,26.07
2019-06-27T10:51:29.517Z,25.72
2019-06-27T10:52:29.552Z,25.78
2019-06-27T10:53:29.480Z,25.73
2019-06-27T10:54:29.498Z,25.84
2019-06-27T10:55:29.459Z,26.02
2019-06-27T10:56:29.458Z,25.98
2019-06-27T10:57:29.505Z,25.60
2019-06-27T10:58:29.444Z,25.53
2019-06-27T10:59:29.422Z,25.66
2019-06-27T11:00:29.437Z,25.77
2019-06-27T11:01:29.401Z,25.66
2019-06-27T11:02:29.387Z,25.73
2019-06-27T11:03:29.389Z,25.87
2019-06-27T11:04:29.369Z,26.02
2019-06-27T11:05:29.519Z,25.84
2019-06-27T11:06:29.347Z,25.93
2019-06-27T11:07:29.341Z,26.15
2019-06-27T11:08:29.358Z,26.00
2019-06-27T11:09:29.321Z,26.09
2019-06-27T11:10:29.320Z,26.31
2019-06-27T11:11:29.317Z,26.71
2019-06-27T11:12:29.304Z,27.11
2019-06-27T11:13:29.283Z,27.59
2019-06-27T11:14:29.312Z,28.07
2019-06-27T11:15:29.294Z,27.71
2019-06-27T11:16:29.252Z,27.44
2019-06-27T11:17:29.240Z,27.82
2019-06-27T11:18:29.238Z,27.75
2019-06-27T11:19:29.252Z,28.15
2019-06-27T11:20:29.220Z,28.54
2019-06-27T11:21:29.223Z,27.85
2019-06-27T11:22:29.198Z,27.58
2019-06-27T11:23:29.206Z,28.07
2019-06-27T11:24:29.188Z,28.23
2019-06-27T11:25:29.197Z,28.48
2019-06-27T11:26:29.151Z,28.32
2019-06-27T11:27:29.157Z,28.52
2019-06-27T11:28:29.137Z,28.84
2019-06-27T11:29:29.163Z,29.05
2019-06-27T11:30:29.172Z,29.54
2019-06-27T11:31:29.131Z,29.71
2019-06-27T11:32:29.112Z,29.66
2019-06-27T11:33:33.084Z,29.56
2019-06-27T11:34:29.121Z,29.65
2019-06-27T11:35:29.076Z,29.50
2019-06-27T11:36:29.070Z,29.22
2019-06-27T11:37:29.064Z,28.88
2019-06-27T11:38:29.051Z,28.57
2019-06-27T11:39:29.043Z,28.38
2019-06-27T11:40:29.049Z,28.33
2019-06-27T11:41:29.053Z,28.14
2019-06-27T11:42:30.008Z,28.33
2019-06-27T11:43:28.991Z,27.90
2019-06-27T11:44:29.003Z,28.27
2019-06-27T11:45:28.981Z,28.60
2019-06-27T11:46:28.972Z,28.82
2019-06-27T11:47:28.985Z,28.94
2019-06-27T11:48:28.950Z,28.79
2019-06-27T11:49:28.957Z,28.82
2019-06-27T11:50:28.932Z,28.89
2019-06-27T11:51:28.929Z,28.59
2019-06-27T11:52:28.941Z,28.67
2019-06-27T11:53:28.900Z,28.62
2019-06-27T11:54:28.909Z,28.81
2019-06-27T11:55:28.890Z,29.26
2019-06-27T11:56:28.900Z,29.14
2019-06-27T11:57:28.896Z,29.39
2019-06-27T11:58:28.893Z,29.75
2019-06-27T11:59:28.862Z,29.97
2019-06-27T12:00:28.866Z,29.53
2019-06-27T12:01:28.855Z,29.63
2019-06-27T12:02:28.830Z,29.12
2019-06-27T12:03:28.814Z,28.98
2019-06-27T12:04:28.833Z,29.08
2019-06-27T12:05:28.791Z,28.88
2019-06-27T12:06:28.794Z,28.54
2019-06-27T12:07:28.783Z,28.52
2019-06-27T12:08:28.771Z,28.44
2019-06-27T12:09:28.786Z,28.66
2019-06-27T12:10:28.750Z,28.78
2019-06-27T12:11:28.750Z,29.14
2019-06-27T12:12:28.745Z,29.08
2019-06-27T12:13:28.721Z,28.89
2019-06-27T12:14:28.759Z,28.79
2019-06-27T12:15:28.702Z,28.82
2019-06-27T12:16:28.711Z,28.70
2019-06-27T12:17:28.688Z,28.72
2019-06-27T12:18:28.712Z,28.89
2019-06-27T12:19:28.682Z,29.01
2019-06-27T12:20:28.677Z,29.10
2019-06-27T12:21:28.653Z,28.97
2019-06-27T12:22:28.681Z,29.12
2019-06-27T12:23:28.650Z,29.02
2019-06-27T12:24:28.641Z,29.19
2019-06-27T12:25:28.619Z,29.16
2019-06-27T12:26:28.608Z,29.59
2019-06-27T12:27:28.637Z,29.91
2019-06-27T12:28:28.589Z,30.02
2019-06-27T12:29:28.589Z,29.97
2019-06-27T12:30:28.566Z,29.23
2019-06-27T12:31:28.570Z,29.23
2019-06-27T12:32:28.549Z,28.94
2019-06-27T12:33:28.567Z,29.16
2019-06-27T12:34:28.528Z,29.02
2019-06-27T12:35:28.550Z,29.42
2019-06-27T12:36:28.523Z,29.75
2019-06-27T12:37:28.534Z,29.66
2019-06-27T12:38:28.510Z,29.75
2019-06-27T12:39:28.484Z,29.91
2019-06-27T12:40:28.491Z,30.10
2019-06-27T12:41:28.481Z,29.90
2019-06-27T12:42:32.599Z,30.12
2019-06-27T12:43:28.482Z,30.05
2019-06-27T12:44:28.454Z,30.40
2019-06-27T12:45:28.459Z,30.62
2019-06-27T12:46:28.440Z,30.66
2019-06-27T12:47:28.417Z,30.10
2019-06-27T12:48:28.425Z,30.23
2019-06-27T12:49:44.882Z,30.00
2019-06-27T12:50:29.390Z,29.79
2019-06-27T12:51:28.423Z,29.44
2019-06-27T12:52:28.382Z,29.38